ACA114 CYVR-CYYZ
Flight info
| Callsign | ACA114 |
|---|---|
| Flight time | 3h 42m |
| Altitude | 35000 |
| Route | DCT ALNOD DCT IKNIX DCT DORSE DCT KU21Q DCT DIK DCT GEP DCT KP87K DCT YZEMN NUBER6 |
| Aircraft | B77W/H-SDE1E2E3FGHIJ2J3J4J5M1RWXY/LB1D1 |
Departure
| Time | 2026-05-06 20:05 |
|---|---|
| Airport | Vancouver International Airport (CYVR) |
Arrival
| Time | 2026-05-06 23:47 |
|---|---|
| Airport | Toronto Pearson International Airport (CYYZ) |
| Time | Latitude | Longitude | Altitude | Speed | Heading |
|---|---|---|---|---|---|
| 2026-05-06 19:11 | 49.19573 | -123.18034 | 29 ft | 0 kts | 154° |
| 2026-05-06 19:49 | 49.19579 | -123.18038 | 29 ft | 4 kts | 154° |
| 2026-05-06 19:50 | 49.19603 | -123.18056 | 28 ft | 4 kts | 153° |
| 2026-05-06 19:50 | 49.19627 | -123.18075 | 29 ft | 4 kts | 153° |
| 2026-05-06 19:50 | 49.19651 | -123.18094 | 29 ft | 4 kts | 153° |
| 2026-05-06 19:50 | 49.19672 | -123.18110 | 29 ft | 3 kts | 154° |
| 2026-05-06 19:51 | 49.19654 | -123.18112 | 28 ft | 4 kts | 207° |
| 2026-05-06 19:51 | 49.19641 | -123.18139 | 26 ft | 4 kts | 256° |
| 2026-05-06 19:51 | 49.19649 | -123.18174 | 26 ft | 4 kts | 302° |
| 2026-05-06 19:51 | 49.19665 | -123.18202 | 28 ft | 2 kts | 311° |
| 2026-05-06 19:52 | 49.19675 | -123.18237 | 29 ft | 4 kts | 286° |
| 2026-05-06 19:52 | 49.19680 | -123.18277 | 29 ft | 3 kts | 279° |
| 2026-05-06 19:52 | 49.19681 | -123.18283 | 29 ft | 0 kts | 279° |
| 2026-05-06 19:56 | 49.19685 | -123.18316 | 29 ft | 7 kts | 279° |
| 2026-05-06 19:56 | 49.19694 | -123.18396 | 29 ft | 8 kts | 279° |
| 2026-05-06 19:56 | 49.19699 | -123.18446 | 29 ft | 1 kts | 280° |
| 2026-05-06 19:56 | 49.19699 | -123.18447 | 29 ft | 0 kts | 280° |
| 2026-05-06 19:57 | 49.19703 | -123.18474 | 30 ft | 7 kts | 280° |
| 2026-05-06 19:57 | 49.19713 | -123.18561 | 29 ft | 8 kts | 280° |
| 2026-05-06 19:57 | 49.19717 | -123.18647 | 29 ft | 7 kts | 252° |
| 2026-05-06 19:57 | 49.19673 | -123.18683 | 29 ft | 7 kts | 191° |
| 2026-05-06 19:58 | 49.19622 | -123.18697 | 29 ft | 7 kts | 189° |
| 2026-05-06 19:58 | 49.19571 | -123.18710 | 29 ft | 7 kts | 189° |
| 2026-05-06 19:58 | 49.19520 | -123.18724 | 29 ft | 7 kts | 189° |
| 2026-05-06 19:58 | 49.19469 | -123.18738 | 29 ft | 7 kts | 190° |
| 2026-05-06 19:59 | 49.19418 | -123.18752 | 29 ft | 7 kts | 190° |
| 2026-05-06 19:59 | 49.19386 | -123.18812 | 29 ft | 9 kts | 252° |
| 2026-05-06 19:59 | 49.19365 | -123.18969 | 29 ft | 20 kts | 259° |
| 2026-05-06 19:59 | 49.19340 | -123.19170 | 29 ft | 20 kts | 259° |
| 2026-05-06 20:00 | 49.19315 | -123.19375 | 30 ft | 20 kts | 259° |
| 2026-05-06 20:00 | 49.19290 | -123.19579 | 30 ft | 20 kts | 259° |
| 2026-05-06 20:00 | 49.19265 | -123.19783 | 30 ft | 20 kts | 259° |
| 2026-05-06 20:00 | 49.19240 | -123.19988 | 30 ft | 20 kts | 259° |
| 2026-05-06 20:01 | 49.19214 | -123.20191 | 30 ft | 20 kts | 259° |
| 2026-05-06 20:01 | 49.19190 | -123.20389 | 30 ft | 15 kts | 259° |
| 2026-05-06 20:01 | 49.19180 | -123.20507 | 30 ft | 11 kts | 271° |
| 2026-05-06 20:01 | 49.19191 | -123.20619 | 30 ft | 11 kts | 279° |
| 2026-05-06 20:02 | 49.19201 | -123.20712 | 30 ft | 5 kts | 280° |
| 2026-05-06 20:02 | 49.19201 | -123.20752 | 30 ft | 1 kts | 261° |
| 2026-05-06 20:02 | 49.19201 | -123.20753 | 30 ft | 0 kts | 261° |
| 2026-05-06 20:03 | 49.19200 | -123.20762 | 30 ft | 4 kts | 258° |
| 2026-05-06 20:03 | 49.19172 | -123.20814 | 30 ft | 7 kts | 211° |
| 2026-05-06 20:03 | 49.19123 | -123.20835 | 30 ft | 7 kts | 190° |
| 2026-05-06 20:04 | 49.19073 | -123.20849 | 30 ft | 7 kts | 190° |
| 2026-05-06 20:04 | 49.19026 | -123.20833 | 30 ft | 6 kts | 138° |
| 2026-05-06 20:04 | 49.19011 | -123.20773 | 30 ft | 6 kts | 101° |
| 2026-05-06 20:04 | 49.18986 | -123.20568 | 30 ft | 44 kts | 100° |
| 2026-05-06 20:05 | 49.18890 | -123.19721 | 30 ft | 116 kts | 100° |
| 2026-05-06 20:05 | 49.18717 | -123.18203 | 32 ft | 171 kts | 99° |
| 2026-05-06 20:05 | 49.18504 | -123.16379 | 600 ft | 175 kts | 101° |
| 2026-05-06 20:05 | 49.18302 | -123.14472 | 1597 ft | 182 kts | 105° |
| 2026-05-06 20:06 | 49.17916 | -123.12637 | 2216 ft | 184 kts | 114° |
| 2026-05-06 20:06 | 49.17478 | -123.10777 | 2813 ft | 188 kts | 112° |
| 2026-05-06 20:06 | 49.17002 | -123.08873 | 3323 ft | 197 kts | 113° |
| 2026-05-06 20:06 | 49.16609 | -123.06752 | 3524 ft | 220 kts | 102° |
| 2026-05-06 20:07 | 49.16416 | -123.04313 | 3700 ft | 248 kts | 97° |
| 2026-05-06 20:07 | 49.16246 | -123.01616 | 4231 ft | 261 kts | 97° |
| 2026-05-06 20:07 | 49.16069 | -122.98817 | 4915 ft | 267 kts | 96° |
| 2026-05-06 20:07 | 49.15878 | -122.95934 | 5516 ft | 278 kts | 96° |
| 2026-05-06 20:08 | 49.15672 | -122.92977 | 6229 ft | 283 kts | 96° |
| 2026-05-06 20:08 | 49.15454 | -122.89943 | 6892 ft | 289 kts | 96° |
| 2026-05-06 20:08 | 49.15227 | -122.86867 | 7594 ft | 294 kts | 97° |
| 2026-05-06 20:08 | 49.14991 | -122.83735 | 8268 ft | 299 kts | 97° |
| 2026-05-06 20:09 | 49.14747 | -122.80557 | 8965 ft | 303 kts | 97° |
| 2026-05-06 20:09 | 49.14496 | -122.77336 | 9646 ft | 308 kts | 97° |
| 2026-05-06 20:09 | 49.14242 | -122.74106 | 10258 ft | 315 kts | 97° |
| 2026-05-06 20:09 | 49.13972 | -122.70688 | 10530 ft | 336 kts | 97° |
| 2026-05-06 20:10 | 49.13679 | -122.67011 | 10712 ft | 360 kts | 97° |
| 2026-05-06 20:10 | 49.13365 | -122.63090 | 10897 ft | 384 kts | 97° |
| 2026-05-06 20:10 | 49.13032 | -122.58957 | 11303 ft | 399 kts | 97° |
| 2026-05-06 20:10 | 49.12689 | -122.54707 | 11957 ft | 408 kts | 97° |
| 2026-05-06 20:11 | 49.12337 | -122.50379 | 12824 ft | 413 kts | 97° |
| 2026-05-06 20:11 | 49.11981 | -122.46009 | 13748 ft | 417 kts | 97° |
| 2026-05-06 20:11 | 49.11618 | -122.41585 | 14557 ft | 423 kts | 97° |
| 2026-05-06 20:11 | 49.11248 | -122.37099 | 15303 ft | 429 kts | 97° |
| 2026-05-06 20:12 | 49.10869 | -122.32535 | 16050 ft | 436 kts | 97° |
| 2026-05-06 20:12 | 49.10484 | -122.27909 | 16808 ft | 441 kts | 97° |
| 2026-05-06 20:12 | 49.10092 | -122.23227 | 17556 ft | 447 kts | 97° |
| 2026-05-06 20:12 | 49.09698 | -122.18552 | 18303 ft | 453 kts | 97° |
| 2026-05-06 20:13 | 49.09292 | -122.13751 | 18978 ft | 459 kts | 97° |
| 2026-05-06 20:13 | 49.08879 | -122.08887 | 19647 ft | 464 kts | 97° |
| 2026-05-06 20:13 | 49.08460 | -122.03981 | 20316 ft | 468 kts | 97° |
| 2026-05-06 20:13 | 49.08036 | -121.99037 | 20980 ft | 473 kts | 97° |
| 2026-05-06 20:14 | 49.07603 | -121.94023 | 21620 ft | 478 kts | 97° |
| 2026-05-06 20:14 | 49.07165 | -121.88972 | 22220 ft | 483 kts | 97° |
| 2026-05-06 20:14 | 49.06718 | -121.83845 | 22821 ft | 488 kts | 97° |
| 2026-05-06 20:14 | 49.06267 | -121.78682 | 23430 ft | 493 kts | 97° |
| 2026-05-06 20:15 | 49.05809 | -121.73485 | 23984 ft | 498 kts | 97° |
| 2026-05-06 20:15 | 49.05431 | -121.68220 | 24466 ft | 500 kts | 92° |
| 2026-05-06 20:15 | 49.05390 | -121.62968 | 24927 ft | 504 kts | 86° |
| 2026-05-06 20:15 | 49.05695 | -121.57635 | 25372 ft | 507 kts | 80° |
| 2026-05-06 20:16 | 49.06213 | -121.52295 | 25858 ft | 510 kts | 79° |
| 2026-05-06 20:16 | 49.06743 | -121.46926 | 26352 ft | 514 kts | 79° |
| 2026-05-06 20:16 | 49.07266 | -121.41535 | 26885 ft | 514 kts | 79° |
| 2026-05-06 20:16 | 49.07779 | -121.36114 | 27328 ft | 519 kts | 79° |
| 2026-05-06 20:17 | 49.08287 | -121.30643 | 27689 ft | 524 kts | 79° |
| 2026-05-06 20:17 | 49.08790 | -121.25115 | 28109 ft | 529 kts | 79° |
| 2026-05-06 20:17 | 49.09290 | -121.19533 | 28618 ft | 532 kts | 79° |
| 2026-05-06 20:17 | 49.09782 | -121.13933 | 29038 ft | 533 kts | 79° |
| 2026-05-06 20:18 | 49.10269 | -121.08307 | 29455 ft | 536 kts | 79° |
| 2026-05-06 20:18 | 49.10758 | -121.02661 | 29916 ft | 537 kts | 80° |
| 2026-05-06 20:18 | 49.11251 | -120.96982 | 30194 ft | 542 kts | 80° |
| 2026-05-06 20:18 | 49.11738 | -120.91351 | 30632 ft | 540 kts | 80° |
| 2026-05-06 20:19 | 49.12225 | -120.85684 | 31221 ft | 536 kts | 79° |
| 2026-05-06 20:19 | 49.12711 | -120.80045 | 31770 ft | 534 kts | 79° |
| 2026-05-06 20:19 | 49.13193 | -120.74429 | 32165 ft | 533 kts | 79° |
| 2026-05-06 20:19 | 49.13668 | -120.68806 | 32547 ft | 533 kts | 79° |
| 2026-05-06 20:20 | 49.14140 | -120.63180 | 32921 ft | 534 kts | 79° |
| 2026-05-06 20:20 | 49.14610 | -120.57559 | 33329 ft | 534 kts | 79° |
| 2026-05-06 20:20 | 49.15077 | -120.51941 | 33767 ft | 533 kts | 79° |
| 2026-05-06 20:20 | 49.15541 | -120.46314 | 34153 ft | 532 kts | 79° |
| 2026-05-06 20:21 | 49.15999 | -120.40714 | 34553 ft | 530 kts | 79° |
| 2026-05-06 20:21 | 49.16452 | -120.35143 | 34895 ft | 528 kts | 79° |
| 2026-05-06 20:21 | 49.17365 | -120.23919 | 34985 ft | 534 kts | 79° |
| 2026-05-06 20:22 | 49.18249 | -120.12812 | 34953 ft | 525 kts | 79° |
| 2026-05-06 20:22 | 49.19123 | -120.01721 | 34950 ft | 525 kts | 79° |
| 2026-05-06 20:23 | 49.19996 | -119.90565 | 34934 ft | 529 kts | 79° |
| 2026-05-06 20:23 | 49.20855 | -119.79391 | 34916 ft | 529 kts | 79° |
| 2026-05-06 20:24 | 49.21707 | -119.68197 | 34868 ft | 531 kts | 79° |
| 2026-05-06 20:24 | 49.22544 | -119.56986 | 34899 ft | 530 kts | 79° |
| 2026-05-06 20:25 | 49.23364 | -119.45842 | 34901 ft | 531 kts | 80° |
| 2026-05-06 20:25 | 49.24189 | -119.34590 | 34908 ft | 532 kts | 80° |
| 2026-05-06 20:26 | 49.24918 | -119.23305 | 34907 ft | 535 kts | 84° |
| 2026-05-06 20:26 | 49.24686 | -119.11862 | 34902 ft | 539 kts | 91° |
| 2026-05-06 20:27 | 49.24160 | -119.00423 | 34911 ft | 539 kts | 91° |
| 2026-05-06 20:27 | 49.23654 | -118.88941 | 34900 ft | 541 kts | 91° |
| 2026-05-06 20:28 | 49.23175 | -118.77431 | 34902 ft | 542 kts | 91° |
| 2026-05-06 20:28 | 49.22697 | -118.65930 | 34904 ft | 541 kts | 91° |
| 2026-05-06 20:29 | 49.22206 | -118.54426 | 34908 ft | 542 kts | 91° |
| 2026-05-06 20:29 | 49.21706 | -118.43001 | 34900 ft | 542 kts | 91° |
| 2026-05-06 20:30 | 49.20924 | -118.25778 | 34910 ft | 540 kts | 91° |
| 2026-05-06 20:31 | 49.20392 | -118.14318 | 34915 ft | 540 kts | 91° |
| 2026-05-06 20:31 | 49.19938 | -118.04740 | 34926 ft | 538 kts | 91° |
| 2026-05-06 20:32 | 49.19297 | -117.91476 | 34933 ft | 536 kts | 91° |
| 2026-05-06 20:32 | 49.18831 | -117.82027 | 34922 ft | 535 kts | 91° |
| 2026-05-06 20:33 | 49.18261 | -117.70704 | 34927 ft | 534 kts | 91° |
| 2026-05-06 20:33 | 49.17680 | -117.59370 | 34940 ft | 534 kts | 91° |
| 2026-05-06 20:34 | 49.17089 | -117.48027 | 34952 ft | 535 kts | 92° |
| 2026-05-06 20:34 | 49.16488 | -117.36726 | 34954 ft | 535 kts | 91° |
| 2026-05-06 20:35 | 49.15872 | -117.25380 | 34952 ft | 535 kts | 91° |
| 2026-05-06 20:35 | 49.15246 | -117.14053 | 34967 ft | 533 kts | 91° |
| 2026-05-06 20:36 | 49.14612 | -117.02789 | 34953 ft | 532 kts | 92° |
| 2026-05-06 20:36 | 49.13967 | -116.91521 | 34963 ft | 532 kts | 92° |
| 2026-05-06 20:37 | 49.13314 | -116.80336 | 34950 ft | 531 kts | 92° |
| 2026-05-06 20:37 | 49.12662 | -116.69099 | 34974 ft | 532 kts | 92° |
| 2026-05-06 20:38 | 49.11978 | -116.57858 | 34984 ft | 532 kts | 92° |
| 2026-05-06 20:38 | 49.11287 | -116.46608 | 34963 ft | 533 kts | 92° |
| 2026-05-06 20:39 | 49.10589 | -116.35368 | 34957 ft | 532 kts | 92° |
| 2026-05-06 20:39 | 49.09881 | -116.24135 | 34962 ft | 531 kts | 92° |
| 2026-05-06 20:40 | 49.09163 | -116.12930 | 34957 ft | 530 kts | 92° |
| 2026-05-06 20:40 | 49.08439 | -116.01819 | 34955 ft | 530 kts | 92° |
| 2026-05-06 20:41 | 49.07702 | -115.90647 | 34991 ft | 528 kts | 93° |
| 2026-05-06 20:41 | 49.06954 | -115.79495 | 34963 ft | 527 kts | 93° |
| 2026-05-06 20:42 | 49.06197 | -115.68375 | 34965 ft | 526 kts | 93° |
| 2026-05-06 20:42 | 49.05431 | -115.57285 | 34967 ft | 526 kts | 93° |
| 2026-05-06 20:43 | 49.04655 | -115.46182 | 35008 ft | 527 kts | 94° |
| 2026-05-06 20:43 | 49.03865 | -115.35061 | 34991 ft | 528 kts | 94° |
| 2026-05-06 20:44 | 49.03070 | -115.23999 | 34988 ft | 528 kts | 94° |
| 2026-05-06 20:44 | 49.02257 | -115.12864 | 34992 ft | 527 kts | 94° |
| 2026-05-06 20:45 | 49.01436 | -115.01752 | 35015 ft | 527 kts | 94° |
| 2026-05-06 20:45 | 49.00612 | -114.90748 | 35029 ft | 526 kts | 94° |
| 2026-05-06 20:46 | 48.99774 | -114.79672 | 35003 ft | 525 kts | 94° |
| 2026-05-06 20:46 | 48.98905 | -114.68640 | 35003 ft | 524 kts | 94° |
| 2026-05-06 20:47 | 48.97976 | -114.57652 | 35015 ft | 523 kts | 95° |
| 2026-05-06 20:47 | 48.97035 | -114.46696 | 35004 ft | 521 kts | 95° |
| 2026-05-06 20:48 | 48.96093 | -114.35750 | 35016 ft | 521 kts | 95° |
| 2026-05-06 20:48 | 48.95146 | -114.24814 | 35004 ft | 521 kts | 95° |
| 2026-05-06 20:49 | 48.94198 | -114.13960 | 34980 ft | 521 kts | 95° |
| 2026-05-06 20:49 | 48.93232 | -114.03032 | 34994 ft | 520 kts | 95° |
| 2026-05-06 20:50 | 48.92256 | -113.92135 | 34969 ft | 519 kts | 95° |
| 2026-05-06 20:50 | 48.91269 | -113.81272 | 34989 ft | 519 kts | 95° |
| 2026-05-06 20:51 | 48.90272 | -113.70418 | 34966 ft | 518 kts | 95° |
| 2026-05-06 20:51 | 48.89291 | -113.59653 | 34957 ft | 517 kts | 95° |
| 2026-05-06 20:52 | 48.88276 | -113.48805 | 34939 ft | 519 kts | 95° |
| 2026-05-06 20:52 | 48.87246 | -113.37931 | 34951 ft | 520 kts | 94° |
| 2026-05-06 20:53 | 48.86207 | -113.27037 | 34930 ft | 521 kts | 94° |
| 2026-05-06 20:53 | 48.85157 | -113.16140 | 34893 ft | 521 kts | 95° |
| 2026-05-06 20:54 | 48.84106 | -113.05342 | 34902 ft | 520 kts | 95° |
| 2026-05-06 20:54 | 48.83038 | -112.94478 | 34883 ft | 519 kts | 95° |
| 2026-05-06 20:55 | 48.81960 | -112.83632 | 34906 ft | 519 kts | 95° |
| 2026-05-06 20:55 | 48.80875 | -112.72802 | 34883 ft | 518 kts | 95° |
| 2026-05-06 20:56 | 48.79783 | -112.62007 | 34877 ft | 518 kts | 95° |
| 2026-05-06 20:56 | 48.78682 | -112.51235 | 34882 ft | 517 kts | 95° |
| 2026-05-06 20:57 | 48.77578 | -112.40537 | 34892 ft | 516 kts | 95° |
| 2026-05-06 20:57 | 48.76457 | -112.29776 | 34904 ft | 517 kts | 94° |
| 2026-05-06 20:58 | 48.75326 | -112.19014 | 34899 ft | 517 kts | 95° |
| 2026-05-06 20:58 | 48.74185 | -112.08264 | 34898 ft | 517 kts | 95° |
| 2026-05-06 20:59 | 48.73034 | -111.97514 | 34906 ft | 517 kts | 95° |
| 2026-05-06 20:59 | 48.71872 | -111.86764 | 34920 ft | 517 kts | 95° |
| 2026-05-06 21:00 | 48.70701 | -111.76015 | 34916 ft | 518 kts | 95° |
| 2026-05-06 21:00 | 48.69524 | -111.65318 | 34927 ft | 518 kts | 95° |
| 2026-05-06 21:01 | 48.68327 | -111.54539 | 34940 ft | 519 kts | 95° |
| 2026-05-06 21:01 | 48.67119 | -111.43760 | 34937 ft | 519 kts | 95° |
| 2026-05-06 21:02 | 48.65911 | -111.33069 | 34941 ft | 519 kts | 95° |
| 2026-05-06 21:02 | 48.64686 | -111.22309 | 34947 ft | 519 kts | 94° |
| 2026-05-06 21:03 | 48.63449 | -111.11554 | 34949 ft | 518 kts | 94° |
| 2026-05-06 21:03 | 48.62205 | -111.00828 | 34948 ft | 518 kts | 95° |
| 2026-05-06 21:04 | 48.60951 | -110.90109 | 34955 ft | 518 kts | 95° |
| 2026-05-06 21:04 | 48.59689 | -110.79404 | 34990 ft | 517 kts | 94° |
| 2026-05-06 21:05 | 48.58416 | -110.68700 | 34959 ft | 517 kts | 94° |
| 2026-05-06 21:05 | 48.57135 | -110.57999 | 34952 ft | 517 kts | 94° |
| 2026-05-06 21:06 | 48.55853 | -110.47403 | 34970 ft | 517 kts | 94° |
| 2026-05-06 21:06 | 48.54554 | -110.36734 | 34965 ft | 516 kts | 94° |
| 2026-05-06 21:07 | 48.53246 | -110.26080 | 34984 ft | 517 kts | 94° |
| 2026-05-06 21:07 | 48.51928 | -110.15432 | 34963 ft | 516 kts | 94° |
| 2026-05-06 21:08 | 48.50600 | -110.04775 | 34975 ft | 516 kts | 94° |
| 2026-05-06 21:08 | 48.48992 | -109.94193 | 34978 ft | 520 kts | 99° |
| 2026-05-06 21:09 | 48.46962 | -109.83697 | 34980 ft | 521 kts | 101° |
| 2026-05-06 21:09 | 48.44907 | -109.73222 | 34993 ft | 522 kts | 100° |
| 2026-05-06 21:10 | 48.42870 | -109.62740 | 34980 ft | 521 kts | 99° |
| 2026-05-06 21:10 | 48.40859 | -109.52346 | 34979 ft | 520 kts | 99° |
| 2026-05-06 21:11 | 48.38832 | -109.41909 | 34972 ft | 519 kts | 100° |
| 2026-05-06 21:11 | 48.36797 | -109.31488 | 34971 ft | 519 kts | 100° |
| 2026-05-06 21:12 | 48.34749 | -109.21070 | 34988 ft | 519 kts | 100° |
| 2026-05-06 21:12 | 48.32694 | -109.10681 | 34973 ft | 517 kts | 100° |
| 2026-05-06 21:13 | 48.30650 | -109.00396 | 34960 ft | 516 kts | 100° |
| 2026-05-06 21:13 | 48.28590 | -108.90086 | 34961 ft | 515 kts | 100° |
| 2026-05-06 21:14 | 48.26523 | -108.79794 | 34976 ft | 514 kts | 100° |
| 2026-05-06 21:14 | 48.24449 | -108.69520 | 35008 ft | 514 kts | 100° |
| 2026-05-06 21:15 | 48.22363 | -108.59234 | 34998 ft | 515 kts | 100° |
| 2026-05-06 21:15 | 48.20278 | -108.49012 | 34985 ft | 516 kts | 100° |
| 2026-05-06 21:16 | 48.18165 | -108.38709 | 34987 ft | 516 kts | 100° |
| 2026-05-06 21:16 | 48.16044 | -108.28423 | 34985 ft | 517 kts | 100° |
| 2026-05-06 21:17 | 48.13914 | -108.18139 | 35022 ft | 517 kts | 100° |
| 2026-05-06 21:17 | 48.11771 | -108.07845 | 34999 ft | 518 kts | 100° |
| 2026-05-06 21:18 | 48.09617 | -107.97562 | 35013 ft | 518 kts | 100° |
| 2026-05-06 21:18 | 48.07455 | -107.87290 | 35013 ft | 517 kts | 100° |
| 2026-05-06 21:19 | 48.05654 | -107.78770 | 35018 ft | 517 kts | 100° |
| 2026-05-06 21:19 | 48.03124 | -107.66857 | 35067 ft | 517 kts | 100° |
| 2026-05-06 21:20 | 48.01305 | -107.58334 | 35034 ft | 518 kts | 100° |
| 2026-05-06 21:20 | 47.99104 | -107.48072 | 35036 ft | 518 kts | 100° |
| 2026-05-06 21:21 | 47.96894 | -107.37820 | 35038 ft | 518 kts | 100° |
| 2026-05-06 21:21 | 47.94675 | -107.27580 | 35040 ft | 518 kts | 100° |
| 2026-05-06 21:22 | 47.92460 | -107.17404 | 35063 ft | 518 kts | 100° |
| 2026-05-06 21:22 | 47.90217 | -107.07151 | 35046 ft | 519 kts | 100° |
| 2026-05-06 21:23 | 47.87970 | -106.96932 | 35042 ft | 519 kts | 100° |
| 2026-05-06 21:23 | 47.85723 | -106.86760 | 35043 ft | 519 kts | 101° |
| 2026-05-06 21:24 | 47.83455 | -106.76544 | 35032 ft | 519 kts | 101° |
| 2026-05-06 21:24 | 47.81181 | -106.66352 | 35033 ft | 519 kts | 101° |
| 2026-05-06 21:25 | 47.78895 | -106.56161 | 35045 ft | 519 kts | 101° |
| 2026-05-06 21:25 | 47.76603 | -106.45984 | 35043 ft | 519 kts | 101° |
| 2026-05-06 21:26 | 47.74301 | -106.35809 | 35047 ft | 519 kts | 101° |
| 2026-05-06 21:26 | 47.71991 | -106.25652 | 35051 ft | 519 kts | 101° |
| 2026-05-06 21:27 | 47.69667 | -106.15483 | 35100 ft | 520 kts | 101° |
| 2026-05-06 21:27 | 47.67333 | -106.05314 | 35051 ft | 521 kts | 101° |
| 2026-05-06 21:28 | 47.65003 | -105.95216 | 35052 ft | 521 kts | 101° |
| 2026-05-06 21:28 | 47.62649 | -105.85059 | 35043 ft | 521 kts | 101° |
| 2026-05-06 21:29 | 47.60284 | -105.74906 | 35040 ft | 521 kts | 101° |
| 2026-05-06 21:29 | 47.57913 | -105.64769 | 35085 ft | 520 kts | 102° |
| 2026-05-06 21:30 | 47.55530 | -105.54628 | 35042 ft | 521 kts | 102° |
| 2026-05-06 21:30 | 47.53150 | -105.44554 | 35036 ft | 521 kts | 102° |
| 2026-05-06 21:31 | 47.50754 | -105.34455 | 35033 ft | 520 kts | 102° |
| 2026-05-06 21:31 | 47.48349 | -105.24365 | 35044 ft | 520 kts | 102° |
| 2026-05-06 21:32 | 47.45936 | -105.14281 | 35080 ft | 520 kts | 102° |
| 2026-05-06 21:32 | 47.42292 | -104.99148 | 35034 ft | 520 kts | 102° |
| 2026-05-06 21:33 | 47.39855 | -104.89086 | 35026 ft | 520 kts | 102° |
| 2026-05-06 21:33 | 47.37409 | -104.79031 | 35022 ft | 520 kts | 102° |
| 2026-05-06 21:34 | 47.34969 | -104.69048 | 35020 ft | 521 kts | 103° |
| 2026-05-06 21:34 | 47.32501 | -104.58987 | 35024 ft | 521 kts | 103° |
| 2026-05-06 21:35 | 47.30025 | -104.48950 | 35024 ft | 521 kts | 103° |
| 2026-05-06 21:35 | 47.27544 | -104.38936 | 35037 ft | 520 kts | 103° |
| 2026-05-06 21:36 | 47.25059 | -104.28951 | 35044 ft | 519 kts | 103° |
| 2026-05-06 21:36 | 47.22569 | -104.18983 | 35055 ft | 518 kts | 103° |
| 2026-05-06 21:37 | 47.20085 | -104.09086 | 35047 ft | 519 kts | 103° |
| 2026-05-06 21:37 | 47.17560 | -103.99069 | 35050 ft | 519 kts | 103° |
| 2026-05-06 21:38 | 47.15057 | -103.89183 | 35043 ft | 519 kts | 103° |
| 2026-05-06 21:38 | 47.12528 | -103.79236 | 35049 ft | 519 kts | 103° |
| 2026-05-06 21:39 | 47.09995 | -103.69319 | 35092 ft | 519 kts | 103° |
| 2026-05-06 21:39 | 47.07451 | -103.59391 | 35053 ft | 520 kts | 103° |
| 2026-05-06 21:40 | 47.04889 | -103.49449 | 35046 ft | 521 kts | 103° |
| 2026-05-06 21:40 | 47.02317 | -103.39511 | 35034 ft | 521 kts | 103° |
| 2026-05-06 21:41 | 46.99735 | -103.29575 | 35033 ft | 522 kts | 103° |
| 2026-05-06 21:41 | 46.97159 | -103.19703 | 35072 ft | 522 kts | 103° |
| 2026-05-06 21:42 | 46.94557 | -103.09770 | 35026 ft | 523 kts | 103° |
| 2026-05-06 21:42 | 46.91939 | -102.99824 | 35006 ft | 523 kts | 103° |
| 2026-05-06 21:43 | 46.89322 | -102.89915 | 34998 ft | 523 kts | 103° |
| 2026-05-06 21:43 | 46.86706 | -102.79999 | 34980 ft | 521 kts | 102° |
| 2026-05-06 21:44 | 46.84866 | -102.70001 | 35011 ft | 509 kts | 92° |
| 2026-05-06 21:44 | 46.83523 | -102.59839 | 35006 ft | 509 kts | 92° |
| 2026-05-06 21:45 | 46.82163 | -102.49682 | 35004 ft | 510 kts | 92° |
| 2026-05-06 21:45 | 46.80758 | -102.39517 | 35019 ft | 511 kts | 93° |
| 2026-05-06 21:46 | 46.79329 | -102.29358 | 35064 ft | 511 kts | 93° |
| 2026-05-06 21:46 | 46.77887 | -102.19180 | 35048 ft | 513 kts | 94° |
| 2026-05-06 21:47 | 46.76433 | -102.08982 | 35043 ft | 513 kts | 94° |
| 2026-05-06 21:47 | 46.74969 | -101.98789 | 35041 ft | 514 kts | 94° |
| 2026-05-06 21:48 | 46.73503 | -101.88644 | 35043 ft | 513 kts | 94° |
| 2026-05-06 21:48 | 46.72023 | -101.78460 | 35041 ft | 513 kts | 94° |
| 2026-05-06 21:49 | 46.70533 | -101.68275 | 35043 ft | 513 kts | 94° |
| 2026-05-06 21:49 | 46.69033 | -101.58093 | 35049 ft | 513 kts | 94° |
| 2026-05-06 21:50 | 46.67533 | -101.47976 | 35044 ft | 513 kts | 94° |
| 2026-05-06 21:50 | 46.66012 | -101.37787 | 35085 ft | 514 kts | 95° |
| 2026-05-06 21:51 | 46.64492 | -101.27673 | 35056 ft | 514 kts | 96° |
| 2026-05-06 21:51 | 46.62953 | -101.17480 | 35050 ft | 514 kts | 96° |
| 2026-05-06 21:52 | 46.61415 | -101.07369 | 35047 ft | 514 kts | 96° |
| 2026-05-06 21:52 | 46.59861 | -100.97224 | 35068 ft | 514 kts | 96° |
| 2026-05-06 21:53 | 46.58297 | -100.87065 | 35047 ft | 514 kts | 97° |
| 2026-05-06 21:53 | 46.56723 | -100.76918 | 35041 ft | 514 kts | 97° |
| 2026-05-06 21:54 | 46.55151 | -100.66843 | 35040 ft | 513 kts | 97° |
| 2026-05-06 21:54 | 46.53564 | -100.56736 | 35040 ft | 513 kts | 97° |
| 2026-05-06 21:55 | 46.51969 | -100.46631 | 35051 ft | 514 kts | 98° |
| 2026-05-06 21:55 | 46.50363 | -100.36536 | 35050 ft | 513 kts | 98° |
| 2026-05-06 21:56 | 46.48748 | -100.26441 | 35048 ft | 513 kts | 98° |
| 2026-05-06 21:56 | 46.47126 | -100.16358 | 35054 ft | 513 kts | 98° |
| 2026-05-06 21:57 | 46.45496 | -100.06284 | 35058 ft | 513 kts | 99° |
| 2026-05-06 21:57 | 46.43856 | -99.96214 | 35048 ft | 513 kts | 99° |
| 2026-05-06 21:58 | 46.42206 | -99.86144 | 35048 ft | 513 kts | 99° |
| 2026-05-06 21:58 | 46.40557 | -99.76139 | 35048 ft | 513 kts | 99° |
| 2026-05-06 21:59 | 46.38888 | -99.66069 | 35081 ft | 513 kts | 99° |
| 2026-05-06 21:59 | 46.37212 | -99.56015 | 35066 ft | 513 kts | 100° |
| 2026-05-06 22:00 | 46.35536 | -99.46025 | 35062 ft | 513 kts | 100° |
| 2026-05-06 22:00 | 46.33842 | -99.35986 | 35057 ft | 513 kts | 100° |
| 2026-05-06 22:01 | 46.32141 | -99.25961 | 35060 ft | 513 kts | 100° |
| 2026-05-06 22:01 | 46.30428 | -99.15923 | 35066 ft | 513 kts | 101° |
| 2026-05-06 22:02 | 46.28708 | -99.05901 | 35066 ft | 513 kts | 101° |
| 2026-05-06 22:02 | 46.26980 | -98.95895 | 35069 ft | 512 kts | 101° |
| 2026-05-06 22:03 | 46.25259 | -98.85981 | 35066 ft | 512 kts | 101° |
| 2026-05-06 22:03 | 46.23507 | -98.75948 | 35082 ft | 512 kts | 102° |
| 2026-05-06 22:04 | 46.21769 | -98.66044 | 35076 ft | 511 kts | 102° |
| 2026-05-06 22:04 | 46.20013 | -98.56101 | 35060 ft | 511 kts | 102° |
| 2026-05-06 22:05 | 46.18248 | -98.46155 | 35082 ft | 511 kts | 102° |
| 2026-05-06 22:05 | 46.16474 | -98.36220 | 35091 ft | 511 kts | 103° |
| 2026-05-06 22:06 | 46.14992 | -98.27960 | 35075 ft | 512 kts | 103° |
| 2026-05-06 22:06 | 46.13201 | -98.18026 | 35078 ft | 512 kts | 103° |
| 2026-05-06 22:07 | 46.11401 | -98.08095 | 35071 ft | 512 kts | 103° |
| 2026-05-06 22:07 | 46.09589 | -97.98153 | 35069 ft | 512 kts | 103° |
| 2026-05-06 22:08 | 46.07768 | -97.88215 | 35070 ft | 513 kts | 103° |
| 2026-05-06 22:08 | 46.05948 | -97.78339 | 35063 ft | 513 kts | 103° |
| 2026-05-06 22:09 | 46.04107 | -97.68402 | 35064 ft | 514 kts | 103° |
| 2026-05-06 22:09 | 46.02258 | -97.58473 | 35065 ft | 514 kts | 104° |
| 2026-05-06 22:10 | 46.00398 | -97.48535 | 35079 ft | 514 kts | 104° |
| 2026-05-06 22:10 | 45.98528 | -97.38600 | 35082 ft | 514 kts | 104° |
| 2026-05-06 22:11 | 45.96661 | -97.28732 | 35078 ft | 514 kts | 104° |
| 2026-05-06 22:11 | 45.94775 | -97.18819 | 35078 ft | 514 kts | 104° |
| 2026-05-06 22:12 | 45.92882 | -97.08916 | 35088 ft | 514 kts | 104° |
| 2026-05-06 22:12 | 45.90980 | -96.99016 | 35083 ft | 514 kts | 104° |
| 2026-05-06 22:13 | 45.89071 | -96.89137 | 35081 ft | 514 kts | 104° |
| 2026-05-06 22:13 | 45.87151 | -96.79250 | 35082 ft | 514 kts | 104° |
| 2026-05-06 22:14 | 45.85224 | -96.69372 | 35098 ft | 514 kts | 105° |
| 2026-05-06 22:14 | 45.83289 | -96.59509 | 35088 ft | 514 kts | 105° |
| 2026-05-06 22:15 | 45.81342 | -96.49636 | 35083 ft | 514 kts | 105° |
| 2026-05-06 22:15 | 45.79403 | -96.39849 | 35083 ft | 514 kts | 105° |
| 2026-05-06 22:16 | 45.77438 | -96.29982 | 35080 ft | 514 kts | 105° |
| 2026-05-06 22:16 | 45.75462 | -96.20110 | 35096 ft | 515 kts | 105° |
| 2026-05-06 22:17 | 45.73489 | -96.10301 | 35101 ft | 515 kts | 105° |
| 2026-05-06 22:17 | 45.71491 | -96.00420 | 35101 ft | 516 kts | 105° |
| 2026-05-06 22:18 | 45.69487 | -95.90552 | 35065 ft | 516 kts | 106° |
| 2026-05-06 22:18 | 45.67472 | -95.80687 | 35076 ft | 517 kts | 106° |
| 2026-05-06 22:19 | 45.65446 | -95.70813 | 35077 ft | 517 kts | 106° |
| 2026-05-06 22:19 | 45.63411 | -95.60943 | 35059 ft | 517 kts | 106° |
| 2026-05-06 22:20 | 45.61380 | -95.51141 | 35061 ft | 517 kts | 106° |
| 2026-05-06 22:20 | 45.59323 | -95.41261 | 35065 ft | 517 kts | 107° |
| 2026-05-06 22:21 | 45.57276 | -95.31477 | 35057 ft | 518 kts | 107° |
| 2026-05-06 22:21 | 45.55201 | -95.21605 | 35062 ft | 518 kts | 107° |
| 2026-05-06 22:22 | 45.53119 | -95.11753 | 35073 ft | 518 kts | 107° |
| 2026-05-06 22:22 | 45.51042 | -95.01967 | 35095 ft | 518 kts | 107° |
| 2026-05-06 22:23 | 45.48942 | -94.92120 | 35082 ft | 518 kts | 107° |
| 2026-05-06 22:23 | 45.46831 | -94.82269 | 35060 ft | 519 kts | 107° |
| 2026-05-06 22:24 | 45.44725 | -94.72485 | 35077 ft | 519 kts | 107° |
| 2026-05-06 22:24 | 45.42594 | -94.62635 | 35110 ft | 520 kts | 107° |
| 2026-05-06 22:25 | 45.40452 | -94.52779 | 35094 ft | 521 kts | 108° |
| 2026-05-06 22:25 | 45.38316 | -94.42996 | 35093 ft | 521 kts | 108° |
| 2026-05-06 22:26 | 45.36149 | -94.33120 | 35087 ft | 521 kts | 108° |
| 2026-05-06 22:26 | 45.33990 | -94.23327 | 35093 ft | 522 kts | 108° |
| 2026-05-06 22:27 | 45.31809 | -94.13476 | 35078 ft | 522 kts | 108° |
| 2026-05-06 22:27 | 45.29619 | -94.03634 | 35066 ft | 522 kts | 108° |
| 2026-05-06 22:28 | 45.27431 | -93.93841 | 35074 ft | 523 kts | 108° |
| 2026-05-06 22:28 | 45.25214 | -93.83969 | 35074 ft | 523 kts | 108° |
| 2026-05-06 22:29 | 45.22991 | -93.74112 | 35085 ft | 524 kts | 109° |
| 2026-05-06 22:29 | 45.20769 | -93.64308 | 35075 ft | 524 kts | 109° |
| 2026-05-06 22:30 | 45.18526 | -93.54448 | 35067 ft | 524 kts | 109° |
| 2026-05-06 22:30 | 45.16291 | -93.44666 | 35058 ft | 524 kts | 109° |
| 2026-05-06 22:31 | 45.14109 | -93.34805 | 35031 ft | 524 kts | 105° |
| 2026-05-06 22:31 | 45.12336 | -93.24790 | 35064 ft | 524 kts | 104° |
| 2026-05-06 22:32 | 45.10605 | -93.14743 | 35068 ft | 525 kts | 104° |
| 2026-05-06 22:32 | 45.08860 | -93.04774 | 35079 ft | 525 kts | 105° |
| 2026-05-06 22:33 | 45.07071 | -92.94730 | 35072 ft | 526 kts | 105° |
| 2026-05-06 22:33 | 45.05265 | -92.84681 | 35073 ft | 527 kts | 105° |
| 2026-05-06 22:34 | 45.03451 | -92.74638 | 35073 ft | 527 kts | 105° |
| 2026-05-06 22:34 | 45.01636 | -92.64639 | 35068 ft | 527 kts | 105° |
| 2026-05-06 22:35 | 44.99802 | -92.54582 | 35077 ft | 528 kts | 105° |
| 2026-05-06 22:35 | 44.97959 | -92.44535 | 35078 ft | 528 kts | 105° |
| 2026-05-06 22:36 | 44.96115 | -92.34530 | 35059 ft | 529 kts | 106° |
| 2026-05-06 22:36 | 44.94249 | -92.24467 | 35069 ft | 529 kts | 106° |
| 2026-05-06 22:37 | 44.92381 | -92.14447 | 35070 ft | 530 kts | 106° |
| 2026-05-06 22:37 | 44.90491 | -92.04363 | 35070 ft | 531 kts | 106° |
| 2026-05-06 22:38 | 44.88603 | -91.94341 | 35065 ft | 532 kts | 106° |
| 2026-05-06 22:38 | 44.86694 | -91.84259 | 35062 ft | 532 kts | 107° |
| 2026-05-06 22:39 | 44.84770 | -91.74156 | 35066 ft | 532 kts | 107° |
| 2026-05-06 22:39 | 44.82853 | -91.64140 | 35053 ft | 532 kts | 107° |
| 2026-05-06 22:40 | 44.80913 | -91.54060 | 35052 ft | 532 kts | 107° |
| 2026-05-06 22:40 | 44.78964 | -91.43982 | 35057 ft | 532 kts | 107° |
| 2026-05-06 22:41 | 44.76036 | -91.28945 | 35053 ft | 533 kts | 107° |
| 2026-05-06 22:42 | 44.74065 | -91.18881 | 35058 ft | 533 kts | 107° |
| 2026-05-06 22:42 | 44.72079 | -91.08799 | 35055 ft | 534 kts | 107° |
| 2026-05-06 22:43 | 44.70100 | -90.98804 | 35048 ft | 534 kts | 107° |
| 2026-05-06 22:43 | 44.68095 | -90.88728 | 35048 ft | 534 kts | 107° |
| 2026-05-06 22:44 | 44.66082 | -90.78662 | 35049 ft | 534 kts | 107° |
| 2026-05-06 22:44 | 44.64080 | -90.68696 | 35044 ft | 534 kts | 108° |
| 2026-05-06 22:45 | 44.62051 | -90.58656 | 35037 ft | 534 kts | 108° |
| 2026-05-06 22:45 | 44.60010 | -90.48605 | 35024 ft | 535 kts | 108° |
| 2026-05-06 22:46 | 44.57961 | -90.38560 | 35027 ft | 536 kts | 108° |
| 2026-05-06 22:46 | 44.55905 | -90.28537 | 35020 ft | 538 kts | 108° |
| 2026-05-06 22:47 | 44.53825 | -90.18442 | 35021 ft | 539 kts | 108° |
| 2026-05-06 22:47 | 44.51734 | -90.08339 | 35023 ft | 540 kts | 109° |
| 2026-05-06 22:48 | 44.49692 | -89.98212 | 35026 ft | 541 kts | 105° |
| 2026-05-06 22:48 | 44.48164 | -89.87876 | 35031 ft | 542 kts | 103° |
| 2026-05-06 22:49 | 44.46708 | -89.77519 | 35029 ft | 542 kts | 103° |
| 2026-05-06 22:49 | 44.45230 | -89.67224 | 35021 ft | 542 kts | 103° |
| 2026-05-06 22:50 | 44.43712 | -89.56895 | 35019 ft | 542 kts | 104° |
| 2026-05-06 22:50 | 44.42177 | -89.46583 | 35020 ft | 541 kts | 104° |
| 2026-05-06 22:51 | 44.40633 | -89.36267 | 35008 ft | 542 kts | 104° |
| 2026-05-06 22:51 | 44.39079 | -89.25944 | 35016 ft | 542 kts | 104° |
| 2026-05-06 22:52 | 44.37517 | -89.15624 | 35019 ft | 543 kts | 104° |
| 2026-05-06 22:52 | 44.35941 | -89.05278 | 35039 ft | 544 kts | 104° |
| 2026-05-06 22:53 | 44.34354 | -88.94929 | 35039 ft | 545 kts | 104° |
| 2026-05-06 22:53 | 44.32765 | -88.84636 | 35029 ft | 545 kts | 104° |
| 2026-05-06 22:54 | 44.31158 | -88.74284 | 35032 ft | 545 kts | 105° |
| 2026-05-06 22:54 | 44.29541 | -88.63944 | 34986 ft | 545 kts | 105° |
| 2026-05-06 22:55 | 44.28179 | -88.55281 | 34985 ft | 545 kts | 105° |
| 2026-05-06 22:55 | 44.26554 | -88.45006 | 34981 ft | 545 kts | 105° |
| 2026-05-06 22:56 | 44.24913 | -88.34690 | 34996 ft | 545 kts | 105° |
| 2026-05-06 22:56 | 44.23261 | -88.24372 | 34988 ft | 545 kts | 105° |
| 2026-05-06 22:57 | 44.21599 | -88.14057 | 34980 ft | 545 kts | 105° |
| 2026-05-06 22:57 | 44.19927 | -88.03740 | 34972 ft | 545 kts | 106° |
| 2026-05-06 22:58 | 44.18243 | -87.93414 | 34985 ft | 547 kts | 106° |
| 2026-05-06 22:58 | 44.16545 | -87.83074 | 34988 ft | 549 kts | 106° |
| 2026-05-06 22:59 | 44.14832 | -87.72694 | 34984 ft | 550 kts | 106° |
| 2026-05-06 22:59 | 44.13110 | -87.62320 | 34974 ft | 550 kts | 106° |
| 2026-05-06 23:00 | 44.11391 | -87.52032 | 34977 ft | 549 kts | 106° |
| 2026-05-06 23:00 | 44.09652 | -87.41687 | 34985 ft | 548 kts | 107° |
| 2026-05-06 23:01 | 44.07908 | -87.31368 | 34994 ft | 548 kts | 107° |
| 2026-05-06 23:01 | 44.06153 | -87.21051 | 34990 ft | 548 kts | 107° |
| 2026-05-06 23:02 | 44.04387 | -87.10730 | 34996 ft | 548 kts | 107° |
| 2026-05-06 23:02 | 44.02627 | -87.00501 | 34991 ft | 548 kts | 107° |
| 2026-05-06 23:03 | 44.00844 | -86.90199 | 34985 ft | 548 kts | 108° |
| 2026-05-06 23:03 | 43.99052 | -86.79907 | 34994 ft | 549 kts | 108° |
| 2026-05-06 23:04 | 43.97247 | -86.69595 | 34991 ft | 550 kts | 108° |
| 2026-05-06 23:04 | 43.95430 | -86.59278 | 34991 ft | 551 kts | 108° |
| 2026-05-06 23:05 | 43.93595 | -86.48917 | 34987 ft | 553 kts | 108° |
| 2026-05-06 23:05 | 43.91747 | -86.38543 | 34994 ft | 555 kts | 108° |
| 2026-05-06 23:06 | 43.89884 | -86.28146 | 34993 ft | 556 kts | 108° |
| 2026-05-06 23:06 | 43.88011 | -86.17746 | 34984 ft | 556 kts | 109° |
| 2026-05-06 23:07 | 43.86126 | -86.07335 | 34994 ft | 556 kts | 109° |
| 2026-05-06 23:07 | 43.84231 | -85.96936 | 34999 ft | 557 kts | 109° |
| 2026-05-06 23:08 | 43.82324 | -85.86529 | 34985 ft | 557 kts | 109° |
| 2026-05-06 23:08 | 43.80420 | -85.76189 | 34978 ft | 557 kts | 109° |
| 2026-05-06 23:09 | 43.78492 | -85.65784 | 34965 ft | 557 kts | 109° |
| 2026-05-06 23:09 | 43.76560 | -85.55412 | 34961 ft | 557 kts | 109° |
| 2026-05-06 23:10 | 43.74617 | -85.45039 | 34967 ft | 556 kts | 109° |
| 2026-05-06 23:10 | 43.72667 | -85.34681 | 34957 ft | 556 kts | 110° |
| 2026-05-06 23:11 | 43.70707 | -85.24335 | 34973 ft | 557 kts | 110° |
| 2026-05-06 23:11 | 43.68733 | -85.13967 | 34971 ft | 558 kts | 110° |
| 2026-05-06 23:12 | 43.66746 | -85.03587 | 34944 ft | 558 kts | 110° |
| 2026-05-06 23:12 | 43.64765 | -84.93289 | 34949 ft | 558 kts | 110° |
| 2026-05-06 23:13 | 43.62758 | -84.82915 | 34946 ft | 559 kts | 110° |
| 2026-05-06 23:13 | 43.60742 | -84.72547 | 34943 ft | 559 kts | 110° |
| 2026-05-06 23:14 | 43.58720 | -84.62195 | 34955 ft | 558 kts | 110° |
| 2026-05-06 23:14 | 43.56527 | -84.52022 | 34959 ft | 553 kts | 116° |
| 2026-05-06 23:15 | 43.53626 | -84.42247 | 34967 ft | 549 kts | 120° |
| 2026-05-06 23:15 | 43.50608 | -84.32570 | 34970 ft | 550 kts | 119° |
| 2026-05-06 23:16 | 43.47689 | -84.22810 | 34931 ft | 550 kts | 118° |
| 2026-05-06 23:16 | 43.44828 | -84.13042 | 34956 ft | 551 kts | 118° |
| 2026-05-06 23:17 | 43.41950 | -84.03260 | 34965 ft | 552 kts | 118° |
| 2026-05-06 23:17 | 43.39047 | -83.93470 | 34957 ft | 553 kts | 118° |
| 2026-05-06 23:18 | 43.36131 | -83.83677 | 34946 ft | 554 kts | 118° |
| 2026-05-06 23:18 | 43.33262 | -83.73911 | 34944 ft | 556 kts | 113° |
| 2026-05-06 23:18 | 43.32436 | -83.68684 | 34957 ft | 566 kts | 97° |
| 2026-05-06 23:19 | 43.32611 | -83.63266 | 34952 ft | 567 kts | 81° |
| 2026-05-06 23:19 | 43.34016 | -83.52571 | 34942 ft | 570 kts | 81° |
| 2026-05-06 23:20 | 43.35326 | -83.41796 | 34969 ft | 573 kts | 82° |
| 2026-05-06 23:20 | 43.36507 | -83.30937 | 34975 ft | 576 kts | 83° |
| 2026-05-06 23:21 | 43.37661 | -83.20006 | 34980 ft | 578 kts | 83° |
| 2026-05-06 23:21 | 43.38821 | -83.09076 | 34968 ft | 578 kts | 83° |
| 2026-05-06 23:22 | 43.39973 | -82.98190 | 34972 ft | 578 kts | 83° |
| 2026-05-06 23:22 | 43.41117 | -82.87258 | 35011 ft | 577 kts | 83° |
| 2026-05-06 23:23 | 43.42241 | -82.76327 | 34563 ft | 580 kts | 83° |
| 2026-05-06 23:23 | 43.42805 | -82.70788 | 33698 ft | 586 kts | 83° |
| 2026-05-06 23:23 | 43.43369 | -82.65231 | 32813 ft | 586 kts | 83° |
| 2026-05-06 23:23 | 43.43930 | -82.59678 | 31909 ft | 585 kts | 83° |
| 2026-05-06 23:24 | 43.44487 | -82.54144 | 31240 ft | 580 kts | 83° |
| 2026-05-06 23:24 | 43.45034 | -82.48690 | 30720 ft | 572 kts | 83° |
| 2026-05-06 23:24 | 43.45572 | -82.43294 | 30180 ft | 565 kts | 83° |
| 2026-05-06 23:24 | 43.46094 | -82.38038 | 29564 ft | 558 kts | 83° |
| 2026-05-06 23:25 | 43.46614 | -82.32780 | 29016 ft | 550 kts | 83° |
| 2026-05-06 23:25 | 43.47096 | -82.27602 | 28479 ft | 542 kts | 86° |
| 2026-05-06 23:25 | 43.47300 | -82.22459 | 27953 ft | 533 kts | 91° |
| 2026-05-06 23:25 | 43.47284 | -82.17394 | 27433 ft | 526 kts | 94° |
| 2026-05-06 23:26 | 43.47188 | -82.12392 | 26913 ft | 520 kts | 94° |
| 2026-05-06 23:26 | 43.47092 | -82.07439 | 26396 ft | 515 kts | 94° |
| 2026-05-06 23:26 | 43.47028 | -82.02527 | 25892 ft | 510 kts | 94° |
| 2026-05-06 23:26 | 43.46998 | -81.97667 | 25396 ft | 505 kts | 93° |
| 2026-05-06 23:27 | 43.46988 | -81.92847 | 24892 ft | 500 kts | 93° |
| 2026-05-06 23:27 | 43.46987 | -81.88085 | 24417 ft | 496 kts | 93° |
| 2026-05-06 23:27 | 43.46985 | -81.83406 | 23931 ft | 492 kts | 94° |
| 2026-05-06 23:27 | 43.46980 | -81.78714 | 23425 ft | 488 kts | 94° |
| 2026-05-06 23:28 | 43.46969 | -81.74054 | 22855 ft | 484 kts | 94° |
| 2026-05-06 23:28 | 43.46955 | -81.69429 | 22337 ft | 480 kts | 94° |
| 2026-05-06 23:28 | 43.46940 | -81.64861 | 21842 ft | 475 kts | 94° |
| 2026-05-06 23:28 | 43.46923 | -81.60329 | 21367 ft | 470 kts | 94° |
| 2026-05-06 23:29 | 43.46905 | -81.55847 | 20904 ft | 466 kts | 93° |
| 2026-05-06 23:29 | 43.46884 | -81.51392 | 20433 ft | 462 kts | 93° |
| 2026-05-06 23:29 | 43.46862 | -81.47044 | 19975 ft | 458 kts | 93° |
| 2026-05-06 23:29 | 43.46839 | -81.42675 | 19511 ft | 454 kts | 93° |
| 2026-05-06 23:30 | 43.46813 | -81.38338 | 19046 ft | 451 kts | 93° |
| 2026-05-06 23:30 | 43.46786 | -81.34035 | 18585 ft | 448 kts | 93° |
| 2026-05-06 23:30 | 43.46758 | -81.29760 | 18099 ft | 445 kts | 93° |
| 2026-05-06 23:30 | 43.46729 | -81.25506 | 17595 ft | 442 kts | 92° |
| 2026-05-06 23:31 | 43.46699 | -81.21305 | 17138 ft | 437 kts | 92° |
| 2026-05-06 23:31 | 43.46668 | -81.17136 | 16668 ft | 433 kts | 92° |
| 2026-05-06 23:31 | 43.46635 | -81.13003 | 16211 ft | 430 kts | 92° |
| 2026-05-06 23:31 | 43.46601 | -81.08911 | 15750 ft | 426 kts | 92° |
| 2026-05-06 23:32 | 43.46566 | -81.04847 | 15292 ft | 423 kts | 92° |
| 2026-05-06 23:32 | 43.46529 | -81.00807 | 14834 ft | 420 kts | 92° |
| 2026-05-06 23:32 | 43.46491 | -80.96799 | 14380 ft | 417 kts | 92° |
| 2026-05-06 23:32 | 43.46453 | -80.92818 | 13923 ft | 414 kts | 92° |
| 2026-05-06 23:33 | 43.46413 | -80.88867 | 13413 ft | 412 kts | 92° |
| 2026-05-06 23:33 | 43.46373 | -80.84989 | 12929 ft | 409 kts | 92° |
| 2026-05-06 23:33 | 43.46330 | -80.81090 | 12467 ft | 405 kts | 92° |
| 2026-05-06 23:33 | 43.46287 | -80.77227 | 12009 ft | 401 kts | 91° |
| 2026-05-06 23:34 | 43.46244 | -80.73393 | 11556 ft | 398 kts | 91° |
| 2026-05-06 23:34 | 43.46199 | -80.69604 | 11101 ft | 394 kts | 91° |
| 2026-05-06 23:34 | 43.46154 | -80.65866 | 10815 ft | 386 kts | 91° |
| 2026-05-06 23:34 | 43.46110 | -80.62227 | 10649 ft | 374 kts | 91° |
| 2026-05-06 23:35 | 43.46065 | -80.58700 | 10495 ft | 363 kts | 91° |
| 2026-05-06 23:35 | 43.46021 | -80.55267 | 10339 ft | 353 kts | 91° |
| 2026-05-06 23:35 | 43.45976 | -80.51929 | 10186 ft | 343 kts | 91° |
| 2026-05-06 23:35 | 43.45933 | -80.48686 | 10051 ft | 334 kts | 91° |
| 2026-05-06 23:36 | 43.45890 | -80.45564 | 9839 ft | 323 kts | 91° |
| 2026-05-06 23:36 | 43.45847 | -80.42542 | 9522 ft | 314 kts | 91° |
| 2026-05-06 23:36 | 43.45804 | -80.39536 | 9180 ft | 312 kts | 91° |
| 2026-05-06 23:36 | 43.45874 | -80.36582 | 8834 ft | 307 kts | 79° |
| 2026-05-06 23:37 | 43.46332 | -80.33723 | 8472 ft | 305 kts | 73° |
| 2026-05-06 23:37 | 43.46898 | -80.30921 | 8164 ft | 303 kts | 72° |
| 2026-05-06 23:37 | 43.47450 | -80.28139 | 7874 ft | 300 kts | 72° |
| 2026-05-06 23:37 | 43.47967 | -80.25377 | 7678 ft | 292 kts | 73° |
| 2026-05-06 23:38 | 43.48439 | -80.22751 | 7499 ft | 275 kts | 73° |
| 2026-05-06 23:38 | 43.48885 | -80.20237 | 7213 ft | 265 kts | 73° |
| 2026-05-06 23:38 | 43.49300 | -80.17845 | 7076 ft | 254 kts | 76° |
| 2026-05-06 23:38 | 43.49329 | -80.15448 | 7003 ft | 253 kts | 97° |
| 2026-05-06 23:39 | 43.49045 | -80.12981 | 6660 ft | 263 kts | 100° |
| 2026-05-06 23:39 | 43.48712 | -80.10504 | 6424 ft | 262 kts | 100° |
| 2026-05-06 23:39 | 43.48388 | -80.08048 | 6168 ft | 258 kts | 100° |
| 2026-05-06 23:39 | 43.48080 | -80.05629 | 5915 ft | 254 kts | 99° |
| 2026-05-06 23:40 | 43.47787 | -80.03254 | 5713 ft | 250 kts | 98° |
| 2026-05-06 23:40 | 43.47600 | -80.01696 | 5564 ft | 249 kts | 98° |
| 2026-05-06 23:40 | 43.47320 | -79.99349 | 5355 ft | 249 kts | 98° |
| 2026-05-06 23:40 | 43.47040 | -79.96986 | 5145 ft | 251 kts | 98° |
| 2026-05-06 23:41 | 43.46758 | -79.94610 | 4949 ft | 253 kts | 98° |
| 2026-05-06 23:41 | 43.46520 | -79.92221 | 4704 ft | 248 kts | 87° |
| 2026-05-06 23:41 | 43.46961 | -79.90029 | 4470 ft | 232 kts | 50° |
| 2026-05-06 23:41 | 43.47991 | -79.88427 | 4324 ft | 221 kts | 41° |
| 2026-05-06 23:42 | 43.49058 | -79.86901 | 4130 ft | 220 kts | 41° |
| 2026-05-06 23:42 | 43.50108 | -79.85397 | 4067 ft | 214 kts | 41° |
| 2026-05-06 23:42 | 43.51118 | -79.83956 | 4048 ft | 203 kts | 40° |
| 2026-05-06 23:42 | 43.52094 | -79.82586 | 4024 ft | 199 kts | 40° |
| 2026-05-06 23:43 | 43.53042 | -79.81257 | 4021 ft | 196 kts | 40° |
| 2026-05-06 23:43 | 43.53996 | -79.79893 | 4023 ft | 199 kts | 40° |
| 2026-05-06 23:43 | 43.54958 | -79.78504 | 3834 ft | 203 kts | 42° |
| 2026-05-06 23:43 | 43.55920 | -79.77111 | 3590 ft | 196 kts | 42° |
| 2026-05-06 23:44 | 43.56850 | -79.75764 | 3300 ft | 191 kts | 42° |
| 2026-05-06 23:44 | 43.57746 | -79.74464 | 3031 ft | 183 kts | 42° |
| 2026-05-06 23:44 | 43.58586 | -79.73246 | 2800 ft | 169 kts | 41° |
| 2026-05-06 23:44 | 43.59391 | -79.72082 | 2580 ft | 170 kts | 41° |
| 2026-05-06 23:45 | 43.60208 | -79.70900 | 2340 ft | 168 kts | 41° |
| 2026-05-06 23:45 | 43.61006 | -79.69743 | 2122 ft | 167 kts | 41° |
| 2026-05-06 23:45 | 43.61785 | -79.68612 | 1885 ft | 157 kts | 41° |
| 2026-05-06 23:45 | 43.62519 | -79.67548 | 1651 ft | 152 kts | 41° |
| 2026-05-06 23:46 | 43.63251 | -79.66490 | 1443 ft | 153 kts | 39° |
| 2026-05-06 23:46 | 43.63981 | -79.65444 | 1234 ft | 150 kts | 42° |
| 2026-05-06 23:46 | 43.64685 | -79.64390 | 1021 ft | 148 kts | 44° |
| 2026-05-06 23:46 | 43.65395 | -79.63377 | 819 ft | 147 kts | 41° |
| 2026-05-06 23:47 | 43.66093 | -79.62361 | 629 ft | 148 kts | 44° |
| 2026-05-06 23:47 | 43.66767 | -79.61380 | 571 ft | 125 kts | 45° |
| 2026-05-06 23:47 | 43.67217 | -79.60726 | 572 ft | 54 kts | 46° |
| 2026-05-06 23:47 | 43.67371 | -79.60511 | 576 ft | 25 kts | 38° |
| 2026-05-06 23:48 | 43.67515 | -79.60425 | 574 ft | 15 kts | 15° |
| 2026-05-06 23:48 | 43.67585 | -79.60414 | 576 ft | 10 kts | 335° |
| 2026-05-06 23:48 | 43.67597 | -79.60497 | 573 ft | 10 kts | 243° |
| 2026-05-06 23:48 | 43.67551 | -79.60571 | 572 ft | 10 kts | 227° |
| 2026-05-06 23:49 | 43.67501 | -79.60643 | 574 ft | 10 kts | 226° |
| 2026-05-06 23:49 | 43.67451 | -79.60716 | 571 ft | 11 kts | 226° |
| 2026-05-06 23:49 | 43.67394 | -79.60798 | 570 ft | 12 kts | 226° |
| 2026-05-06 23:49 | 43.67334 | -79.60886 | 569 ft | 13 kts | 226° |
| 2026-05-06 23:50 | 43.67274 | -79.60972 | 567 ft | 13 kts | 226° |
| 2026-05-06 23:50 | 43.67186 | -79.61130 | 569 ft | 8 kts | 285° |
| 2026-05-06 23:50 | 43.67231 | -79.61201 | 572 ft | 14 kts | 316° |
| 2026-05-06 23:51 | 43.67314 | -79.61310 | 570 ft | 17 kts | 316° |
| 2026-05-06 23:51 | 43.67402 | -79.61425 | 573 ft | 17 kts | 316° |
| 2026-05-06 23:51 | 43.67490 | -79.61539 | 573 ft | 17 kts | 316° |
| 2026-05-06 23:51 | 43.67578 | -79.61653 | 574 ft | 17 kts | 317° |
| 2026-05-06 23:52 | 43.67666 | -79.61767 | 575 ft | 17 kts | 316° |
| 2026-05-06 23:52 | 43.67753 | -79.61882 | 573 ft | 17 kts | 316° |
| 2026-05-06 23:52 | 43.67841 | -79.61996 | 572 ft | 17 kts | 316° |
| 2026-05-06 23:52 | 43.67910 | -79.62069 | 573 ft | 10 kts | 348° |
| 2026-05-06 23:53 | 43.67970 | -79.62025 | 575 ft | 10 kts | 47° |
| 2026-05-06 23:53 | 43.67995 | -79.61935 | 566 ft | 10 kts | 72° |
| 2026-05-06 23:53 | 43.68038 | -79.61859 | 573 ft | 10 kts | 46° |
| 2026-05-06 23:53 | 43.68086 | -79.61788 | 575 ft | 10 kts | 46° |
| 2026-05-06 23:54 | 43.68128 | -79.61742 | 575 ft | 7 kts | 22° |
| 2026-05-06 23:54 | 43.68163 | -79.61701 | 572 ft | 7 kts | 54° |
| 2026-05-06 23:54 | 43.68183 | -79.61656 | 571 ft | 3 kts | 59° |
| 2026-05-06 23:54 | 43.68194 | -79.61632 | 573 ft | 2 kts | 59° |
| 2026-05-06 23:55 | 43.68198 | -79.61622 | 568 ft | 0 kts | 59° |